createdAt,value
2023-06-17T00:00:00.462Z,101269.06
2023-06-17T00:02:28.282Z,101284.81
2023-06-17T00:04:56.109Z,101279.72
2023-06-17T00:07:24.244Z,101271.13
2023-06-17T00:09:52.035Z,101273.88
2023-06-17T00:12:19.817Z,101268.75
2023-06-17T00:14:48.146Z,101260.09
2023-06-17T00:17:17.303Z,101269.78
2023-06-17T00:19:45.116Z,101268.97
2023-06-17T00:22:12.953Z,101262.00
2023-06-17T00:24:40.885Z,101263.75
2023-06-17T00:27:08.760Z,101262.09
2023-06-17T00:29:37.364Z,101260.47
2023-06-17T00:32:05.261Z,101253.56
2023-06-17T00:34:34.641Z,101250.09
2023-06-17T00:37:02.680Z,101240.50
2023-06-17T00:39:30.442Z,101245.03
2023-06-17T00:41:58.410Z,101244.22
2023-06-17T00:44:26.202Z,101244.22
2023-06-17T00:46:54.002Z,101244.38
2023-06-17T00:49:21.810Z,101236.56
2023-06-17T00:52:00.274Z,101230.53
2023-06-17T00:54:38.221Z,101231.50
2023-06-17T00:57:09.186Z,101229.78
2023-06-17T00:59:36.948Z,101232.31
2023-06-17T01:02:04.869Z,101227.16
2023-06-17T01:04:32.979Z,101230.78
2023-06-17T01:07:04.440Z,101239.66
2023-06-17T01:09:32.634Z,101237.19
2023-06-17T01:12:00.448Z,101225.88
2023-06-17T01:14:28.764Z,101232.97
2023-06-17T01:16:56.681Z,101226.91
2023-06-17T01:19:26.060Z,101228.81
2023-06-17T01:21:57.001Z,101226.25
2023-06-17T01:24:31.436Z,101222.00
2023-06-17T01:27:01.160Z,101221.28
2023-06-17T01:29:30.470Z,101222.28
2023-06-17T01:31:58.945Z,101224.09
2023-06-17T01:34:27.878Z,101217.09
2023-06-17T01:36:55.641Z,101227.63
2023-06-17T01:39:24.528Z,101229.47
2023-06-17T01:41:54.696Z,101224.28
2023-06-17T01:44:23.090Z,101216.41
2023-06-17T01:46:51.191Z,101219.09
2023-06-17T01:49:19.468Z,101219.28
2023-06-17T01:51:47.304Z,101221.97
2023-06-17T01:54:15.253Z,101222.94
2023-06-17T01:56:43.268Z,101228.25
2023-06-17T01:59:12.452Z,101234.41
2023-06-17T02:01:40.227Z,101233.53
2023-06-17T02:04:08.146Z,101237.00
2023-06-17T02:06:39.952Z,101227.38
2023-06-17T02:09:08.431Z,101234.41
2023-06-17T02:11:36.164Z,101225.75
2023-06-17T02:14:03.993Z,101228.38
2023-06-17T02:16:33.453Z,101231.41
2023-06-17T02:19:03.514Z,101219.44
2023-06-17T02:21:31.996Z,101218.03
2023-06-17T02:23:59.822Z,101221.50
2023-06-17T02:26:27.737Z,101219.84
2023-06-17T02:28:57.480Z,101216.25
2023-06-17T02:31:27.579Z,101210.09
2023-06-17T02:33:58.684Z,101212.50
2023-06-17T02:36:26.653Z,101210.72
2023-06-17T02:38:54.588Z,101215.44
2023-06-17T02:41:22.404Z,101212.84
2023-06-17T02:43:50.140Z,101207.63
2023-06-17T02:46:18.356Z,101206.75
2023-06-17T02:48:46.567Z,101216.34
2023-06-17T02:51:16.200Z,101218.94
2023-06-17T02:53:44.958Z,101214.63
2023-06-17T02:56:15.488Z,101217.34
2023-06-17T02:58:44.330Z,101220.03
2023-06-17T03:01:14.107Z,101220.09
2023-06-17T03:03:44.456Z,101214.91
2023-06-17T03:06:14.224Z,101214.97
2023-06-17T03:08:46.354Z,101217.59
2023-06-17T03:11:14.139Z,101224.59
2023-06-17T03:13:44.146Z,101217.66
2023-06-17T03:16:19.828Z,101221.16
2023-06-17T03:18:48.717Z,101215.94
2023-06-17T03:21:18.903Z,101219.44
2023-06-17T03:23:49.957Z,101219.50
2023-06-17T03:26:19.167Z,101212.56
2023-06-17T03:28:47.247Z,101216.88
2023-06-17T03:31:21.573Z,101216.88
2023-06-17T03:33:52.334Z,101213.44
2023-06-17T03:36:20.734Z,101215.19
2023-06-17T03:38:49.846Z,101213.44
2023-06-17T03:41:18.160Z,101213.44
2023-06-17T03:43:45.954Z,101207.34
2023-06-17T03:46:13.818Z,101213.50
2023-06-17T03:48:41.836Z,101216.97
2023-06-17T03:51:09.629Z,101214.38
2023-06-17T03:53:37.618Z,101215.28
2023-06-17T03:56:07.082Z,101216.16
2023-06-17T03:58:34.869Z,101217.00
2023-06-17T04:01:02.743Z,101217.88
2023-06-17T04:03:30.568Z,101232.69
2023-06-17T04:06:00.795Z,101226.59
2023-06-17T04:08:28.980Z,101226.59
2023-06-17T04:10:56.707Z,101228.31
2023-06-17T04:13:25.956Z,101226.53
2023-06-17T04:15:54.334Z,101232.59
2023-06-17T04:18:23.077Z,101229.97
2023-06-17T04:20:57.330Z,101229.16
2023-06-17T04:23:28.205Z,101229.97
2023-06-17T04:25:57.881Z,101230.06
2023-06-17T04:28:33.157Z,101223.91
2023-06-17T04:31:02.579Z,101223.84
2023-06-17T04:33:38.862Z,101228.13
2023-06-17T04:36:09.424Z,101228.00
2023-06-17T04:38:40.004Z,101224.47
2023-06-17T04:41:10.076Z,101229.63
2023-06-17T04:43:39.615Z,101232.06
2023-06-17T04:46:10.861Z,101231.88
2023-06-17T04:48:39.984Z,101227.44
2023-06-17T04:51:08.679Z,101229.97
2023-06-17T04:53:36.570Z,101231.50
2023-06-17T04:56:05.871Z,101228.66
2023-06-17T04:58:34.154Z,101234.53
2023-06-17T05:01:21.385Z,101227.34
2023-06-17T05:03:49.243Z,101235.06
2023-06-17T05:06:17.272Z,101236.53
2023-06-17T05:08:45.639Z,101238.06
2023-06-17T05:11:14.782Z,101234.41
2023-06-17T05:13:43.319Z,101239.50
2023-06-17T05:16:11.205Z,101244.53
2023-06-17T05:18:43.038Z,101246.00
2023-06-17T05:21:11.797Z,101240.81
2023-06-17T05:23:39.705Z,101245.78
2023-06-17T05:26:08.790Z,101237.59
2023-06-17T05:28:37.014Z,101233.72
2023-06-17T05:31:05.140Z,101229.09
2023-06-17T05:33:33.050Z,101218.34
2023-06-17T05:36:02.583Z,101227.72
2023-06-17T05:38:31.869Z,101223.88
2023-06-17T05:40:59.672Z,101218.34
2023-06-17T05:43:28.812Z,101217.38
2023-06-17T05:45:57.886Z,101229.13
2023-06-17T05:48:26.655Z,101222.56
2023-06-17T05:50:55.161Z,101223.41
2023-06-17T05:53:24.354Z,101221.63
2023-06-17T05:55:53.360Z,101211.94
2023-06-17T05:58:21.846Z,101217.72
2023-06-17T06:00:58.214Z,101231.38
2023-06-17T06:03:26.372Z,101237.00
2023-06-17T06:05:54.472Z,101236.47
2023-06-17T06:08:22.390Z,101232.94
2023-06-17T06:10:51.779Z,101227.69
2023-06-17T06:13:19.537Z,101230.53
2023-06-17T06:15:47.630Z,101236.13
2023-06-17T06:18:15.983Z,101237.19
2023-06-17T06:20:46.967Z,101233.75
2023-06-17T06:23:15.783Z,101244.50
2023-06-17T06:25:43.540Z,101247.56
2023-06-17T06:28:13.582Z,101246.81
2023-06-17T06:30:43.035Z,101259.34
2023-06-17T06:33:11.939Z,101260.22
2023-06-17T06:35:39.813Z,101256.91
2023-06-17T06:38:11.380Z,101262.88
2023-06-17T06:40:39.221Z,101269.50
2023-06-17T06:43:07.002Z,101275.97
2023-06-17T06:45:51.031Z,101295.28
2023-06-17T06:48:18.998Z,101300.38
2023-06-17T06:50:46.771Z,101302.88
2023-06-17T06:53:14.602Z,101317.66
2023-06-17T06:55:42.406Z,101316.78
2023-06-17T06:58:10.219Z,101321.13
2023-06-17T07:00:38.007Z,101315.00
2023-06-17T07:03:07.494Z,101327.47
2023-06-17T07:05:35.386Z,101315.47
2023-06-17T07:08:04.694Z,101321.88
2023-06-17T07:10:34.606Z,101322.25
2023-06-17T07:13:02.587Z,101321.66
2023-06-17T07:15:30.409Z,101313.94
2023-06-17T07:17:58.183Z,101318.28
2023-06-17T07:20:27.501Z,101320.94
2023-06-17T07:22:56.547Z,101333.94
2023-06-17T07:25:24.431Z,101330.34
2023-06-17T07:27:52.221Z,101333.75
2023-06-17T07:30:20.311Z,101329.94
2023-06-17T07:32:48.419Z,101336.81
2023-06-17T07:35:16.434Z,101326.91
2023-06-17T07:37:46.247Z,101335.19
2023-06-17T07:40:17.098Z,101333.25
2023-06-17T07:42:44.989Z,101343.69
2023-06-17T07:45:12.923Z,101334.59
2023-06-17T07:47:41.170Z,101336.53
2023-06-17T07:50:10.257Z,101332.16
2023-06-17T07:52:38.154Z,101341.84
2023-06-17T07:55:09.632Z,101333.13
2023-06-17T07:57:37.481Z,101339.91
2023-06-17T08:00:11.133Z,101337.50
2023-06-17T08:02:44.641Z,101332.78
2023-06-17T08:05:12.613Z,101336.94
2023-06-17T08:07:40.672Z,101331.88
2023-06-17T08:10:10.543Z,101329.59
2023-06-17T08:12:38.538Z,101328.47
2023-06-17T08:15:07.019Z,101325.78
2023-06-17T08:17:34.832Z,101327.44
2023-06-17T08:20:03.874Z,101329.84
2023-06-17T08:22:32.103Z,101323.91
2023-06-17T08:25:03.140Z,101321.69
2023-06-17T08:27:32.503Z,101332.75
2023-06-17T08:30:00.682Z,101318.78
2023-06-17T08:32:29.015Z,101326.66
2023-06-17T08:34:57.211Z,101325.72
2023-06-17T08:37:25.206Z,101314.47
2023-06-17T08:39:54.009Z,101325.34
2023-06-17T08:42:21.763Z,101328.00
2023-06-17T08:44:50.954Z,101331.19
2023-06-17T08:47:19.602Z,101334.47
2023-06-17T08:49:48.154Z,101327.41
2023-06-17T08:52:16.067Z,101327.88
2023-06-17T08:54:44.800Z,101330.88
2023-06-17T08:57:18.982Z,101337.00
2023-06-17T08:59:47.089Z,101333.84
2023-06-17T09:02:17.019Z,101330.94
2023-06-17T09:04:45.308Z,101325.78
2023-06-17T09:07:14.022Z,101322.81
2023-06-17T09:09:41.838Z,101328.22
2023-06-17T09:12:10.017Z,101329.53
2023-06-17T09:14:38.258Z,101326.59
2023-06-17T09:17:06.108Z,101321.38
2023-06-17T09:19:35.262Z,101318.41
2023-06-17T09:22:07.147Z,101314.41
2023-06-17T09:24:34.986Z,101314.91
2023-06-17T09:27:03.623Z,101313.94
2023-06-17T09:29:43.773Z,101315.56
2023-06-17T09:32:11.704Z,101296.72
2023-06-17T09:34:41.616Z,101302.00
2023-06-17T09:37:09.412Z,101308.84
2023-06-17T09:39:37.151Z,101300.78
2023-06-17T09:42:09.072Z,101301.03
2023-06-17T09:44:38.266Z,101310.59
2023-06-17T09:47:07.429Z,101323.97
2023-06-17T09:49:36.987Z,101307.34
2023-06-17T09:52:09.915Z,101297.16
2023-06-17T09:54:37.928Z,101298.94
2023-06-17T09:57:06.086Z,101305.19
2023-06-17T09:59:33.908Z,101305.03
2023-06-17T10:02:01.664Z,101315.13
2023-06-17T10:04:29.436Z,101317.72
2023-06-17T10:06:57.458Z,101308.31
2023-06-17T10:09:28.142Z,101308.31
2023-06-17T10:11:55.988Z,101308.19
2023-06-17T10:14:24.578Z,101320.09
2023-06-17T10:16:52.387Z,101316.22
2023-06-17T10:19:20.528Z,101313.56
2023-06-17T10:21:48.906Z,101312.03
2023-06-17T10:24:16.778Z,101311.34
2023-06-17T10:26:46.414Z,101308.13
2023-06-17T10:29:15.171Z,101312.34
2023-06-17T10:31:44.194Z,101313.59
2023-06-17T10:34:15.656Z,101311.63
2023-06-17T10:36:43.756Z,101309.72
2023-06-17T10:39:12.222Z,101317.84
2023-06-17T10:42:01.169Z,101319.38
2023-06-17T10:44:34.367Z,101306.47
2023-06-17T10:47:02.515Z,101309.47
2023-06-17T10:49:38.123Z,101318.94
2023-06-17T10:52:08.190Z,101323.38
2023-06-17T10:54:35.970Z,101337.72
2023-06-17T10:57:06.028Z,101331.94
2023-06-17T10:59:34.091Z,101333.63
2023-06-17T11:02:03.067Z,101325.13
2023-06-17T11:04:31.793Z,101335.66
2023-06-17T11:07:02.097Z,101327.47
2023-06-17T11:09:30.481Z,101332.75
2023-06-17T11:11:59.043Z,101322.53
2023-06-17T11:14:28.516Z,101332.69
2023-06-17T11:16:56.485Z,101336.50
2023-06-17T11:19:24.345Z,101321.34
2023-06-17T11:21:52.420Z,101324.88
2023-06-17T11:24:20.497Z,101312.38
2023-06-17T11:26:48.641Z,101318.66
2023-06-17T11:29:16.890Z,101320.69
2023-06-17T11:31:46.655Z,101307.56
2023-06-17T11:34:15.221Z,101299.88
2023-06-17T11:36:43.003Z,101301.38
2023-06-17T11:39:11.393Z,101298.75
2023-06-17T11:41:39.190Z,101291.59
2023-06-17T11:44:07.207Z,101292.28
2023-06-17T11:46:37.663Z,101296.84
2023-06-17T11:49:08.460Z,101294.31
2023-06-17T11:51:37.267Z,101284.97
2023-06-17T11:54:05.839Z,101277.91
2023-06-17T11:56:34.560Z,101277.41
2023-06-17T11:59:02.344Z,101282.06
2023-06-17T12:01:30.114Z,101285.72
2023-06-17T12:03:58.225Z,101277.41
2023-06-17T12:06:29.104Z,101264.91
2023-06-17T12:08:58.160Z,101263.38
2023-06-17T12:11:26.889Z,101270.16
2023-06-17T12:13:55.680Z,101263.41
2023-06-17T12:16:24.754Z,101259.31
2023-06-17T12:18:53.026Z,101258.06
2023-06-17T12:21:21.615Z,101264.50
2023-06-17T12:23:52.239Z,101269.06
2023-06-17T12:26:20.256Z,101264.03
2023-06-17T12:28:48.626Z,101276.38
2023-06-17T12:31:16.730Z,101282.28
2023-06-17T12:33:44.706Z,101280.97
2023-06-17T12:36:12.435Z,101274.09
2023-06-17T12:38:40.608Z,101272.06
2023-06-17T12:41:09.943Z,101270.84
2023-06-17T12:43:39.869Z,101273.88
2023-06-17T12:46:08.321Z,101270.38
2023-06-17T12:48:36.401Z,101266.53
2023-06-17T12:51:04.563Z,101275.00
2023-06-17T12:53:32.335Z,101273.75
2023-06-17T12:56:00.711Z,101264.16
2023-06-17T12:58:29.907Z,101261.94
2023-06-17T13:00:58.170Z,101257.28
2023-06-17T13:03:27.016Z,101258.56
2023-06-17T13:05:54.878Z,101253.53
2023-06-17T13:08:22.863Z,101254.41
2023-06-17T13:10:50.674Z,101259.03
2023-06-17T13:13:18.553Z,101254.28
2023-06-17T13:15:48.579Z,101259.66
2023-06-17T13:18:16.432Z,101255.13
2023-06-17T13:20:44.638Z,101266.47
2023-06-17T13:23:12.617Z,101264.75
2023-06-17T13:25:41.369Z,101271.81
2023-06-17T13:28:09.125Z,101270.94
2023-06-17T13:30:37.949Z,101262.63
2023-06-17T13:33:07.831Z,101278.41
2023-06-17T13:35:36.295Z,101275.91
2023-06-17T13:38:04.573Z,101270.97
2023-06-17T13:40:32.470Z,101277.88
2023-06-17T13:43:00.226Z,101278.09
2023-06-17T13:45:27.961Z,101269.88
2023-06-17T13:47:55.708Z,101274.63
2023-06-17T13:50:26.023Z,101280.81
2023-06-17T13:52:54.585Z,101282.16
2023-06-17T13:55:22.394Z,101282.13
2023-06-17T13:57:50.171Z,101266.28
2023-06-17T14:00:18.426Z,101285.66
2023-06-17T14:02:46.239Z,101267.38
2023-06-17T14:05:14.078Z,101269.53
2023-06-17T14:07:43.390Z,101262.66
2023-06-17T14:10:14.433Z,101253.34
2023-06-17T14:12:42.290Z,101268.34
2023-06-17T14:15:11.037Z,101259.44
2023-06-17T14:17:38.995Z,101269.94
2023-06-17T14:20:07.493Z,101265.84
2023-06-17T14:22:35.267Z,101261.44
2023-06-17T14:25:04.389Z,101263.50
2023-06-17T14:27:36.229Z,101260.13
2023-06-17T14:30:04.345Z,101261.81
2023-06-17T14:32:32.457Z,101275.72
2023-06-17T14:35:00.384Z,101259.53
2023-06-17T14:37:30.048Z,101263.63
2023-06-17T14:39:57.905Z,101252.59
2023-06-17T14:42:30.117Z,101273.88
2023-06-17T14:44:57.963Z,101261.88
2023-06-17T14:47:25.997Z,101273.59
2023-06-17T14:49:53.848Z,101280.13
2023-06-17T14:52:21.562Z,101270.59
2023-06-17T14:54:49.338Z,101273.72
2023-06-17T14:57:17.088Z,101270.44
2023-06-17T14:59:46.247Z,101275.84
2023-06-17T15:02:22.096Z,101272.72
2023-06-17T15:04:49.958Z,101271.88
2023-06-17T15:07:17.684Z,101272.63
2023-06-17T15:09:45.578Z,101280.72
2023-06-17T15:12:15.393Z,101288.19
2023-06-17T15:14:43.180Z,101299.38
2023-06-17T15:17:12.655Z,101298.91
2023-06-17T15:19:41.933Z,101304.28
2023-06-17T15:22:09.967Z,101295.72
2023-06-17T15:24:37.828Z,101301.97
2023-06-17T15:27:06.825Z,101296.16
2023-06-17T15:29:34.610Z,101297.00
2023-06-17T15:32:02.370Z,101291.66
2023-06-17T15:34:31.755Z,101282.44
2023-06-17T15:36:59.515Z,101292.84
2023-06-17T15:39:28.832Z,101296.91
2023-06-17T15:41:56.550Z,101296.31
2023-06-17T15:44:24.270Z,101292.81
2023-06-17T15:46:52.177Z,101291.41
2023-06-17T15:49:20.058Z,101291.25
2023-06-17T15:51:49.285Z,101288.59
2023-06-17T15:54:19.158Z,101290.13
2023-06-17T15:56:47.942Z,101292.78
2023-06-17T15:59:15.749Z,101296.63
2023-06-17T16:01:43.632Z,101293.44
2023-06-17T16:04:27.016Z,101297.69
2023-06-17T16:07:00.385Z,101286.63
2023-06-17T16:09:29.683Z,101286.63
2023-06-17T16:11:57.509Z,101287.44
2023-06-17T16:14:25.265Z,101295.81
2023-06-17T16:16:55.271Z,101286.09
2023-06-17T16:19:26.807Z,101284.44
2023-06-17T16:21:58.141Z,101281.06
2023-06-17T16:24:29.019Z,101285.56
2023-06-17T16:26:57.602Z,101282.34
2023-06-17T16:29:26.035Z,101280.34
2023-06-17T16:31:54.278Z,101282.59
2023-06-17T16:34:22.606Z,101279.25
2023-06-17T16:36:50.951Z,101281.28
2023-06-17T16:39:19.561Z,101282.03
2023-06-17T16:41:49.269Z,101290.75
2023-06-17T16:44:17.890Z,101276.84
2023-06-17T16:46:47.671Z,101279.41
2023-06-17T16:49:19.556Z,101274.97
2023-06-17T16:51:48.337Z,101278.22
2023-06-17T16:54:20.086Z,101279.81
2023-06-17T16:56:53.579Z,101279.47
2023-06-17T16:59:31.742Z,101272.09
2023-06-17T17:02:01.261Z,101260.06
2023-06-17T17:04:32.299Z,101259.53
2023-06-17T17:07:02.149Z,101265.38
2023-06-17T17:09:32.102Z,101267.69
2023-06-17T17:12:04.902Z,101261.72
2023-06-17T17:14:33.910Z,101255.94
2023-06-17T17:17:02.193Z,101254.84
2023-06-17T17:19:30.808Z,101254.78
2023-06-17T17:21:58.650Z,101256.63
2023-06-17T17:24:27.311Z,101257.84
2023-06-17T17:26:55.047Z,101256.50
2023-06-17T17:29:24.234Z,101259.25
2023-06-17T17:31:51.986Z,101254.53
2023-06-17T17:34:19.806Z,101252.81
2023-06-17T17:36:47.771Z,101249.16
2023-06-17T17:39:15.499Z,101252.34
2023-06-17T17:41:43.298Z,101253.28
2023-06-17T17:44:11.061Z,101249.22
2023-06-17T17:46:40.596Z,101256.50
2023-06-17T17:49:09.704Z,101249.88
2023-06-17T17:51:37.551Z,101256.16
2023-06-17T17:54:05.708Z,101266.16
2023-06-17T17:56:33.548Z,101273.66
2023-06-17T17:59:01.648Z,101279.31
2023-06-17T18:01:29.462Z,101285.44
2023-06-17T18:03:58.811Z,101271.03
2023-06-17T18:06:26.800Z,101279.03
2023-06-17T18:08:55.998Z,101285.09
2023-06-17T18:11:23.810Z,101286.75
2023-06-17T18:13:53.822Z,101285.13
2023-06-17T18:16:23.204Z,101295.28
2023-06-17T18:18:51.049Z,101292.31
2023-06-17T18:21:20.477Z,101296.53
2023-06-17T18:23:49.030Z,101289.66
2023-06-17T18:26:17.470Z,101293.91
2023-06-17T18:28:45.353Z,101296.31
2023-06-17T18:31:13.133Z,101300.16
2023-06-17T18:33:42.134Z,101301.66
2023-06-17T18:36:09.993Z,101302.59
2023-06-17T18:38:39.331Z,101299.06
2023-06-17T18:41:07.464Z,101306.16
2023-06-17T18:43:35.229Z,101307.94
2023-06-17T18:46:03.044Z,101306.38
2023-06-17T18:48:31.596Z,101312.69
2023-06-17T18:50:59.390Z,101309.56
2023-06-17T18:53:27.208Z,101315.75
2023-06-17T18:55:56.355Z,101318.00
2023-06-17T18:58:24.077Z,101309.22
2023-06-17T19:00:51.850Z,101312.44
2023-06-17T19:03:20.343Z,101305.72
2023-06-17T19:05:48.275Z,101315.69
2023-06-17T19:08:16.070Z,101309.56
2023-06-17T19:10:43.862Z,101320.03
2023-06-17T19:13:13.106Z,101325.66
2023-06-17T19:15:45.237Z,101327.94
2023-06-17T19:18:13.194Z,101330.28
2023-06-17T19:20:42.139Z,101336.44
2023-06-17T19:23:11.864Z,101332.56
2023-06-17T19:25:39.663Z,101339.53
2023-06-17T19:28:07.542Z,101333.78
2023-06-17T19:30:36.700Z,101334.00
2023-06-17T19:33:04.995Z,101335.72
2023-06-17T19:35:33.093Z,101334.13
2023-06-17T19:38:02.550Z,101339.28
2023-06-17T19:40:30.308Z,101327.53
2023-06-17T19:42:58.084Z,101335.88
2023-06-17T19:45:29.495Z,101324.78
2023-06-17T19:47:59.427Z,101325.97
2023-06-17T19:50:27.688Z,101333.03
2023-06-17T19:52:58.326Z,101332.25
2023-06-17T19:55:26.310Z,101332.16
2023-06-17T19:57:54.791Z,101335.72
2023-06-17T20:00:26.126Z,101336.75
2023-06-17T20:02:56.768Z,101333.09
2023-06-17T20:05:26.555Z,101333.16
2023-06-17T20:07:54.613Z,101344.81
2023-06-17T20:10:22.896Z,101340.34
2023-06-17T20:12:51.802Z,101340.56
2023-06-17T20:15:19.829Z,101344.53
2023-06-17T20:17:50.325Z,101357.97
2023-06-17T20:20:19.162Z,101354.09
2023-06-17T20:22:51.166Z,101351.94
2023-06-17T20:25:19.324Z,101347.72
2023-06-17T20:27:47.421Z,101348.75
2023-06-17T20:30:16.073Z,101352.59
2023-06-17T20:32:44.035Z,101350.72
2023-06-17T20:35:11.910Z,101354.97
2023-06-17T20:37:39.942Z,101355.91
2023-06-17T20:40:10.222Z,101355.59
2023-06-17T20:42:38.292Z,101357.38
2023-06-17T20:45:07.194Z,101361.03
2023-06-17T20:47:35.097Z,101353.81
2023-06-17T20:50:03.065Z,101358.38
2023-06-17T20:52:30.951Z,101364.81
2023-06-17T20:54:58.849Z,101353.31
2023-06-17T20:57:28.047Z,101350.06
2023-06-17T20:59:56.632Z,101350.38
2023-06-17T21:02:24.587Z,101343.84
2023-06-17T21:04:52.605Z,101339.56
2023-06-17T21:07:20.536Z,101342.34
2023-06-17T21:09:49.477Z,101333.88
2023-06-17T21:12:18.224Z,101333.16
2023-06-17T21:14:48.572Z,101320.84
2023-06-17T21:17:16.425Z,101324.13
2023-06-17T21:19:44.461Z,101318.72
2023-06-17T21:22:12.605Z,101323.84
2023-06-17T21:24:40.961Z,101322.56
2023-06-17T21:27:10.542Z,101320.16
2023-06-17T21:29:38.531Z,101320.84
2023-06-17T21:32:10.370Z,101334.09
2023-06-17T21:34:38.674Z,101326.13
2023-06-17T21:37:06.656Z,101324.28
2023-06-17T21:39:34.585Z,101324.06
2023-06-17T21:42:02.424Z,101326.19
2023-06-17T21:44:33.395Z,101330.06
2023-06-17T21:47:02.160Z,101331.91
2023-06-17T21:49:31.273Z,101317.22
2023-06-17T21:51:59.204Z,101320.88
2023-06-17T21:54:27.145Z,101323.25
2023-06-17T21:56:54.966Z,101325.50
2023-06-17T21:59:23.212Z,101325.22
2023-06-17T22:01:52.917Z,101323.19
2023-06-17T22:04:21.117Z,101312.44
2023-06-17T22:06:50.403Z,101308.72
2023-06-17T22:09:18.828Z,101318.88
2023-06-17T22:11:55.741Z,101323.94
2023-06-17T22:14:23.729Z,101325.31
2023-06-17T22:16:51.589Z,101330.50
2023-06-17T22:19:19.955Z,101339.97
2023-06-17T22:21:47.991Z,101346.94
2023-06-17T22:24:17.372Z,101347.16
2023-06-17T22:26:45.831Z,101346.47
2023-06-17T22:29:14.150Z,101334.41
2023-06-17T22:31:42.054Z,101332.56
2023-06-17T22:34:09.981Z,101330.47
2023-06-17T22:36:38.826Z,101335.50
2023-06-17T22:39:06.861Z,101327.47
2023-06-17T22:41:36.968Z,101330.03
2023-06-17T22:44:08.295Z,101326.41
2023-06-17T22:46:36.472Z,101328.03
2023-06-17T22:49:04.455Z,101334.06
2023-06-17T22:51:32.246Z,101323.63
2023-06-17T22:54:00.062Z,101325.41
2023-06-17T22:56:28.488Z,101322.91
2023-06-17T22:58:57.670Z,101330.97
2023-06-17T23:01:25.795Z,101329.25
2023-06-17T23:03:53.610Z,101326.56
2023-06-17T23:06:21.372Z,101329.09
2023-06-17T23:08:49.137Z,101328.19
2023-06-17T23:11:17.011Z,101329.09
2023-06-17T23:13:44.831Z,101324.78
2023-06-17T23:16:14.277Z,101326.56
2023-06-17T23:18:42.038Z,101324.06
2023-06-17T23:21:09.903Z,101324.22
2023-06-17T23:23:37.663Z,101325.13
2023-06-17T23:26:05.612Z,101324.28
2023-06-17T23:28:34.259Z,101317.75
2023-06-17T23:31:03.369Z,101315.53
2023-06-17T23:33:33.891Z,101310.28
2023-06-17T23:36:01.727Z,101305.78
2023-06-17T23:38:33.397Z,101309.06
2023-06-17T23:41:01.426Z,101307.22
2023-06-17T23:43:29.152Z,101303.69
2023-06-17T23:45:57.658Z,101304.53
2023-06-17T23:48:25.545Z,101299.34
2023-06-17T23:50:54.760Z,101308.22
2023-06-17T23:53:22.607Z,101301.34
2023-06-17T23:55:50.357Z,101295.34
2023-06-17T23:58:18.155Z,101293.00
